Terminal Aerodrome Forecast
Issued by NWS

Home | Current Version | Previous Version | Text Only | Print | Product List | Glossary On
Versions: 1 2 3 4 5 6 7 8 9 10 11 12 13 14 15 16 17 18 19 20 21 22 23 24 25 26
370
FTUS42 KGSP 222351 AAA
TAFAND
TAF AMD
KAND 222351Z 2300/2324 08013KT P6SM -SHRA VCTS SCT007 OVC015CB
      TEMPO 2300/2303 10017G23KT BKN007CB
     FM230300 21012KT P6SM BKN008
      TEMPO 2303/2307 4SM -TSRA OVC003CB
     FM230700 22008KT 3SM BR OVC003 PROB30 2310/2314 3/4SM -SHRA BR
     FM231500 29014G21KT P6SM -SHRA BKN045
     FM232200 29015G22KT P6SM SCT120=

USA.gov is the U.S. government's official web portal to all federal, state and local government web resources and services.